sensor_id;sensor_type;location;lat;lon;timestamp;pressure;altitude;pressure_sealevel;temperature;humidity
25638;BME280;13496;51.040;13.680;2024-02-26T00:04:54;98520.78;;;19.15;49.69
25638;BME280;13496;51.040;13.680;2024-02-26T00:09:56;98515.50;;;19.15;49.28
25638;BME280;13496;51.040;13.680;2024-02-26T00:14:58;98521.22;;;19.12;49.57
25638;BME280;13496;51.040;13.680;2024-02-26T00:20:00;98523.41;;;19.15;49.43
25638;BME280;13496;51.040;13.680;2024-02-26T00:25:03;98512.88;;;19.15;49.57
25638;BME280;13496;51.040;13.680;2024-02-26T00:30:06;98507.03;;;19.13;49.04
25638;BME280;13496;51.040;13.680;2024-02-26T00:35:08;98505.88;;;19.09;49.20
25638;BME280;13496;51.040;13.680;2024-02-26T00:40:11;98496.41;;;19.08;49.48
25638;BME280;13496;51.040;13.680;2024-02-26T00:45:14;98497.00;;;19.10;49.15
25638;BME280;13496;51.040;13.680;2024-02-26T00:50:16;98492.09;;;19.14;49.19
25638;BME280;13496;51.040;13.680;2024-02-26T00:55:18;98493.53;;;19.09;49.16
25638;BME280;13496;51.040;13.680;2024-02-26T01:00:20;98486.91;;;19.07;49.37
25638;BME280;13496;51.040;13.680;2024-02-26T01:05:22;98482.09;;;19.04;49.49
25638;BME280;13496;51.040;13.680;2024-02-26T01:10:23;98480.06;;;19.06;49.37
25638;BME280;13496;51.040;13.680;2024-02-26T01:15:25;98474.78;;;19.06;49.36
25638;BME280;13496;51.040;13.680;2024-02-26T01:20:27;98473.97;;;19.05;49.29
25638;BME280;13496;51.040;13.680;2024-02-26T01:25:29;98468.34;;;19.02;49.42
25638;BME280;13496;51.040;13.680;2024-02-26T01:30:31;98468.00;;;18.98;49.44
25638;BME280;13496;51.040;13.680;2024-02-26T01:35:33;98461.50;;;19.01;49.52
25638;BME280;13496;51.040;13.680;2024-02-26T01:40:34;98460.69;;;19.00;49.49
25638;BME280;13496;51.040;13.680;2024-02-26T01:45:39;98456.69;;;18.98;49.15
25638;BME280;13496;51.040;13.680;2024-02-26T01:50:41;98453.69;;;18.94;49.08
25638;BME280;13496;51.040;13.680;2024-02-26T01:55:42;98443.41;;;18.93;49.51
25638;BME280;13496;51.040;13.680;2024-02-26T02:00:44;98438.16;;;18.93;49.42
25638;BME280;13496;51.040;13.680;2024-02-26T02:05:47;98432.91;;;18.93;49.33
25638;BME280;13496;51.040;13.680;2024-02-26T02:10:49;98436.56;;;18.92;49.63
25638;BME280;13496;51.040;13.680;2024-02-26T02:15:52;98428.88;;;18.90;49.55
25638;BME280;13496;51.040;13.680;2024-02-26T02:20:54;98426.94;;;18.85;49.47
25638;BME280;13496;51.040;13.680;2024-02-26T02:25:58;98432.19;;;18.85;49.59
25638;BME280;13496;51.040;13.680;2024-02-26T02:31:00;98425.91;;;18.86;49.27
25638;BME280;13496;51.040;13.680;2024-02-26T02:36:02;98415.25;;;18.81;49.69
25638;BME280;13496;51.040;13.680;2024-02-26T02:41:04;98422.34;;;18.81;49.62
25638;BME280;13496;51.040;13.680;2024-02-26T02:46:06;98410.44;;;18.78;49.51
25638;BME280;13496;51.040;13.680;2024-02-26T02:51:09;98414.66;;;18.79;49.38
25638;BME280;13496;51.040;13.680;2024-02-26T02:56:10;98416.28;;;18.80;49.67
25638;BME280;13496;51.040;13.680;2024-02-26T03:01:13;98425.78;;;18.81;49.57
25638;BME280;13496;51.040;13.680;2024-02-26T03:06:15;98425.19;;;18.79;49.41
25638;BME280;13496;51.040;13.680;2024-02-26T03:11:17;98423.94;;;18.82;49.29
25638;BME280;13496;51.040;13.680;2024-02-26T03:16:18;98430.44;;;18.79;49.57
25638;BME280;13496;51.040;13.680;2024-02-26T03:21:21;98429.88;;;18.77;49.48
25638;BME280;13496;51.040;13.680;2024-02-26T03:26:22;98432.69;;;18.76;49.26
25638;BME280;13496;51.040;13.680;2024-02-26T03:31:24;98438.78;;;18.76;49.63
25638;BME280;13496;51.040;13.680;2024-02-26T03:36:26;98436.34;;;18.75;49.55
25638;BME280;13496;51.040;13.680;2024-02-26T03:41:28;98451.56;;;18.73;49.55
25638;BME280;13496;51.040;13.680;2024-02-26T03:46:30;98448.09;;;18.72;49.50
25638;BME280;13496;51.040;13.680;2024-02-26T03:51:32;98447.72;;;18.69;49.36
25638;BME280;13496;51.040;13.680;2024-02-26T03:56:34;98443.28;;;18.69;49.74
25638;BME280;13496;51.040;13.680;2024-02-26T04:01:36;98443.72;;;18.66;49.62
25638;BME280;13496;51.040;13.680;2024-02-26T04:06:37;98461.06;;;18.67;49.75
25638;BME280;13496;51.040;13.680;2024-02-26T04:11:39;98458.00;;;18.70;49.41
25638;BME280;13496;51.040;13.680;2024-02-26T04:16:41;98455.97;;;18.72;49.49
25638;BME280;13496;51.040;13.680;2024-02-26T04:21:43;98454.97;;;18.73;49.21
25638;BME280;13496;51.040;13.680;2024-02-26T04:26:45;98465.50;;;18.73;49.49
25638;BME280;13496;51.040;13.680;2024-02-26T04:31:47;98460.03;;;18.68;49.46
25638;BME280;13496;51.040;13.680;2024-02-26T04:36:49;98455.81;;;18.67;49.45
25638;BME280;13496;51.040;13.680;2024-02-26T04:41:51;98459.69;;;18.65;49.48
25638;BME280;13496;51.040;13.680;2024-02-26T04:46:53;98464.56;;;18.61;49.43
25638;BME280;13496;51.040;13.680;2024-02-26T04:51:55;98460.78;;;18.57;49.60
25638;BME280;13496;51.040;13.680;2024-02-26T04:56:56;98465.16;;;18.63;49.52
25638;BME280;13496;51.040;13.680;2024-02-26T05:01:58;98466.75;;;18.64;49.57
25638;BME280;13496;51.040;13.680;2024-02-26T05:07:00;98478.53;;;18.61;49.31
25638;BME280;13496;51.040;13.680;2024-02-26T05:12:02;98489.84;;;18.62;49.45
25638;BME280;13496;51.040;13.680;2024-02-26T05:17:05;98493.94;;;18.58;49.27
25638;BME280;13496;51.040;13.680;2024-02-26T05:22:07;98497.56;;;18.57;49.65
25638;BME280;13496;51.040;13.680;2024-02-26T05:27:09;98499.19;;;18.58;49.57
25638;BME280;13496;51.040;13.680;2024-02-26T05:32:12;98499.97;;;18.58;49.45
25638;BME280;13496;51.040;13.680;2024-02-26T05:37:14;98503.47;;;18.52;49.86
25638;BME280;13496;51.040;13.680;2024-02-26T05:42:16;98501.88;;;18.51;49.82
25638;BME280;13496;51.040;13.680;2024-02-26T05:47:17;98499.25;;;18.51;49.88
25638;BME280;13496;51.040;13.680;2024-02-26T05:52:19;98500.47;;;18.49;49.92
25638;BME280;13496;51.040;13.680;2024-02-26T05:57:21;98502.91;;;18.50;49.89
25638;BME280;13496;51.040;13.680;2024-02-26T06:02:23;98503.09;;;18.49;50.12
25638;BME280;13496;51.040;13.680;2024-02-26T06:07:25;98502.06;;;18.50;50.13
25638;BME280;13496;51.040;13.680;2024-02-26T06:12:26;98509.38;;;18.48;49.90
25638;BME280;13496;51.040;13.680;2024-02-26T06:17:29;98511.78;;;18.49;49.77
25638;BME280;13496;51.040;13.680;2024-02-26T06:22:31;98510.78;;;18.50;49.92
25638;BME280;13496;51.040;13.680;2024-02-26T06:27:34;98520.47;;;18.50;50.18
25638;BME280;13496;51.040;13.680;2024-02-26T06:32:36;98505.59;;;18.44;50.03
25638;BME280;13496;51.040;13.680;2024-02-26T06:37:38;98515.88;;;18.45;50.19
25638;BME280;13496;51.040;13.680;2024-02-26T06:42:40;98519.88;;;18.48;50.00
25638;BME280;13496;51.040;13.680;2024-02-26T06:47:42;98521.50;;;18.49;50.04
25638;BME280;13496;51.040;13.680;2024-02-26T06:52:44;98514.63;;;18.48;50.14
25638;BME280;13496;51.040;13.680;2024-02-26T06:57:47;98505.53;;;18.50;50.11
25638;BME280;13496;51.040;13.680;2024-02-26T07:02:49;98505.31;;;18.52;50.16
25638;BME280;13496;51.040;13.680;2024-02-26T07:07:50;98517.41;;;18.53;50.04
25638;BME280;13496;51.040;13.680;2024-02-26T07:12:52;98526.31;;;18.52;49.90
25638;BME280;13496;51.040;13.680;2024-02-26T07:17:54;98518.66;;;18.50;50.18
25638;BME280;13496;51.040;13.680;2024-02-26T07:22:56;98520.63;;;18.55;49.85
25638;BME280;13496;51.040;13.680;2024-02-26T07:27:58;98512.75;;;18.55;49.84
25638;BME280;13496;51.040;13.680;2024-02-26T07:33:00;98523.41;;;18.60;50.06
25638;BME280;13496;51.040;13.680;2024-02-26T07:38:02;98524.38;;;18.66;50.04
25638;BME280;13496;51.040;13.680;2024-02-26T07:43:04;98523.50;;;18.72;49.72
25638;BME280;13496;51.040;13.680;2024-02-26T07:48:06;98526.84;;;18.79;49.67
25638;BME280;13496;51.040;13.680;2024-02-26T07:53:08;98524.41;;;18.84;49.45
25638;BME280;13496;51.040;13.680;2024-02-26T07:58:09;98518.47;;;18.89;49.37
25638;BME280;13496;51.040;13.680;2024-02-26T08:03:11;98519.41;;;18.94;49.56
25638;BME280;13496;51.040;13.680;2024-02-26T08:08:14;98516.94;;;18.99;49.54
25638;BME280;13496;51.040;13.680;2024-02-26T08:13:16;98522.56;;;19.03;49.31
25638;BME280;13496;51.040;13.680;2024-02-26T08:18:18;98526.78;;;19.04;49.45
25638;BME280;13496;51.040;13.680;2024-02-26T08:23:20;98527.38;;;19.06;49.59
25638;BME280;13496;51.040;13.680;2024-02-26T08:28:22;98535.81;;;19.08;49.65
25638;BME280;13496;51.040;13.680;2024-02-26T08:33:25;98530.56;;;19.08;49.28
25638;BME280;13496;51.040;13.680;2024-02-26T08:38:26;98533.56;;;19.12;49.49
25638;BME280;13496;51.040;13.680;2024-02-26T08:43:28;98529.69;;;19.14;49.53
25638;BME280;13496;51.040;13.680;2024-02-26T08:48:30;98532.88;;;19.16;49.72
25638;BME280;13496;51.040;13.680;2024-02-26T08:53:32;98538.75;;;19.18;49.37
25638;BME280;13496;51.040;13.680;2024-02-26T08:58:34;98544.94;;;19.24;49.58
25638;BME280;13496;51.040;13.680;2024-02-26T09:03:36;98538.88;;;19.23;49.44
25638;BME280;13496;51.040;13.680;2024-02-26T09:08:38;98535.22;;;19.24;49.18
25638;BME280;13496;51.040;13.680;2024-02-26T09:13:39;98536.84;;;19.25;49.67
25638;BME280;13496;51.040;13.680;2024-02-26T09:18:41;98527.69;;;19.28;49.44
25638;BME280;13496;51.040;13.680;2024-02-26T09:23:43;98532.50;;;19.31;49.66
25638;BME280;13496;51.040;13.680;2024-02-26T09:28:45;98532.50;;;19.31;49.29
25638;BME280;13496;51.040;13.680;2024-02-26T09:33:47;98535.50;;;19.34;49.57
25638;BME280;13496;51.040;13.680;2024-02-26T09:38:48;98546.81;;;19.35;49.29
25638;BME280;13496;51.040;13.680;2024-02-26T09:43:54;98533.00;;;19.40;49.29
25638;BME280;13496;51.040;13.680;2024-02-26T09:48:57;98539.88;;;19.41;49.31
25638;BME280;13496;51.040;13.680;2024-02-26T09:54:00;98540.78;;;19.46;49.10
25638;BME280;13496;51.040;13.680;2024-02-26T09:59:06;98535.88;;;19.50;49.12
25638;BME280;13496;51.040;13.680;2024-02-26T10:04:12;98547.34;;;19.55;48.99
25638;BME280;13496;51.040;13.680;2024-02-26T10:09:15;98547.72;;;19.59;48.89
25638;BME280;13496;51.040;13.680;2024-02-26T10:14:17;98556.00;;;19.63;48.92
25638;BME280;13496;51.040;13.680;2024-02-26T10:19:26;98564.25;;;19.66;49.10
25638;BME280;13496;51.040;13.680;2024-02-26T10:24:29;98554.06;;;19.70;48.64
25638;BME280;13496;51.040;13.680;2024-02-26T10:29:31;98562.31;;;19.73;48.89
25638;BME280;13496;51.040;13.680;2024-02-26T10:34:35;98557.41;;;19.77;48.88
25638;BME280;13496;51.040;13.680;2024-02-26T10:39:46;98559.25;;;19.76;48.86
25638;BME280;13496;51.040;13.680;2024-02-26T10:44:48;98560.59;;;19.79;48.27
25638;BME280;13496;51.040;13.680;2024-02-26T10:49:50;98555.94;;;19.81;48.62
25638;BME280;13496;51.040;13.680;2024-02-26T10:54:54;98557.53;;;19.82;48.57
25638;BME280;13496;51.040;13.680;2024-02-26T10:59:59;98555.69;;;19.82;48.48
25638;BME280;13496;51.040;13.680;2024-02-26T11:05:06;98561.75;;;19.83;48.20
25638;BME280;13496;51.040;13.680;2024-02-26T11:10:09;98563.59;;;19.82;48.31
25638;BME280;13496;51.040;13.680;2024-02-26T11:15:13;98561.19;;;19.81;48.37
25638;BME280;13496;51.040;13.680;2024-02-26T11:20:15;98560.16;;;19.82;48.93
25638;BME280;13496;51.040;13.680;2024-02-26T11:25:18;98555.69;;;19.82;48.80
25638;BME280;13496;51.040;13.680;2024-02-26T11:30:21;98552.25;;;19.82;48.35
25638;BME280;13496;51.040;13.680;2024-02-26T11:35:25;98556.06;;;19.86;48.64
25638;BME280;13496;51.040;13.680;2024-02-26T11:40:27;98555.25;;;19.86;48.41
25638;BME280;13496;51.040;13.680;2024-02-26T11:50:49;98552.16;;;19.89;48.17
25638;BME280;13496;51.040;13.680;2024-02-26T12:01:37;98547.25;;;19.92;48.52
25638;BME280;13496;51.040;13.680;2024-02-26T12:06:44;98551.72;;;19.92;48.62
25638;BME280;13496;51.040;13.680;2024-02-26T12:11:47;98565.44;;;19.94;48.69
25638;BME280;13496;51.040;13.680;2024-02-26T12:16:50;98566.47;;;19.93;48.52
25638;BME280;13496;51.040;13.680;2024-02-26T12:21:52;98573.34;;;19.94;48.52
25638;BME280;13496;51.040;13.680;2024-02-26T12:26:57;98575.97;;;19.94;48.51
25638;BME280;13496;51.040;13.680;2024-02-26T12:32:00;98579.19;;;19.96;48.64
25638;BME280;13496;51.040;13.680;2024-02-26T12:37:02;98572.91;;;19.97;48.83
25638;BME280;13496;51.040;13.680;2024-02-26T12:42:05;98562.38;;;19.97;48.74
25638;BME280;13496;51.040;13.680;2024-02-26T12:47:07;98565.00;;;19.97;48.91
25638;BME280;13496;51.040;13.680;2024-02-26T12:52:09;98569.22;;;19.98;48.80
25638;BME280;13496;51.040;13.680;2024-02-26T12:57:12;98574.50;;;19.98;48.77
25638;BME280;13496;51.040;13.680;2024-02-26T13:02:14;98578.75;;;19.99;48.42
25638;BME280;13496;51.040;13.680;2024-02-26T13:07:16;98580.81;;;19.97;48.93
25638;BME280;13496;51.040;13.680;2024-02-26T13:12:18;98580.00;;;19.96;48.44
25638;BME280;13496;51.040;13.680;2024-02-26T13:17:23;98577.38;;;19.96;48.73
25638;BME280;13496;51.040;13.680;2024-02-26T13:22:26;98594.56;;;19.99;48.72
25638;BME280;13496;51.040;13.680;2024-02-26T13:27:28;98599.00;;;19.98;48.81
25638;BME280;13496;51.040;13.680;2024-02-26T13:32:35;98601.84;;;19.97;48.61
25638;BME280;13496;51.040;13.680;2024-02-26T13:37:38;98603.47;;;19.98;48.92
25638;BME280;13496;51.040;13.680;2024-02-26T13:42:40;98600.63;;;19.99;48.62
25638;BME280;13496;51.040;13.680;2024-02-26T13:47:41;98606.09;;;19.98;49.05
25638;BME280;13496;51.040;13.680;2024-02-26T13:52:43;98605.53;;;19.96;49.05
25638;BME280;13496;51.040;13.680;2024-02-26T13:57:45;98615.25;;;19.95;49.12
25638;BME280;13496;51.040;13.680;2024-02-26T14:02:47;98615.47;;;19.94;48.80
25638;BME280;13496;51.040;13.680;2024-02-26T14:07:49;98617.31;;;19.93;49.05
25638;BME280;13496;51.040;13.680;2024-02-26T14:12:51;98624.84;;;19.90;48.94
25638;BME280;13496;51.040;13.680;2024-02-26T14:17:52;98633.34;;;19.92;48.96
25638;BME280;13496;51.040;13.680;2024-02-26T14:22:57;98629.06;;;19.91;48.74
25638;BME280;13496;51.040;13.680;2024-02-26T14:27:59;98639.59;;;19.91;49.10
25638;BME280;13496;51.040;13.680;2024-02-26T14:33:01;98643.28;;;19.90;49.06
25638;BME280;13496;51.040;13.680;2024-02-26T14:38:04;98653.25;;;19.88;48.95
25638;BME280;13496;51.040;13.680;2024-02-26T14:43:06;98666.41;;;19.88;49.16
25638;BME280;13496;51.040;13.680;2024-02-26T14:48:11;98669.25;;;19.86;48.99
25638;BME280;13496;51.040;13.680;2024-02-26T14:53:13;98683.78;;;19.89;48.88
25638;BME280;13496;51.040;13.680;2024-02-26T14:58:15;98690.28;;;19.86;49.14
25638;BME280;13496;51.040;13.680;2024-02-26T15:03:17;98701.63;;;19.87;49.19
25638;BME280;13496;51.040;13.680;2024-02-26T15:08:19;98693.59;;;19.81;49.01
25638;BME280;13496;51.040;13.680;2024-02-26T15:13:21;98686.75;;;19.80;49.07
25638;BME280;13496;51.040;13.680;2024-02-26T15:18:23;98678.84;;;19.80;49.19
25638;BME280;13496;51.040;13.680;2024-02-26T15:23:25;98684.91;;;19.81;49.05
25638;BME280;13496;51.040;13.680;2024-02-26T15:28:27;98680.66;;;19.80;49.40
25638;BME280;13496;51.040;13.680;2024-02-26T15:33:30;98692.44;;;19.77;49.03
25638;BME280;13496;51.040;13.680;2024-02-26T15:38:32;98695.63;;;19.79;49.10
25638;BME280;13496;51.040;13.680;2024-02-26T15:43:34;98701.81;;;19.73;49.03
25638;BME280;13496;51.040;13.680;2024-02-26T15:48:36;98707.63;;;19.75;49.44
25638;BME280;13496;51.040;13.680;2024-02-26T15:53:38;98717.59;;;19.73;49.19
25638;BME280;13496;51.040;13.680;2024-02-26T15:58:40;98710.72;;;19.72;49.15
25638;BME280;13496;51.040;13.680;2024-02-26T16:03:42;98719.63;;;19.71;49.13
25638;BME280;13496;51.040;13.680;2024-02-26T16:08:44;98716.19;;;19.71;49.38
25638;BME280;13496;51.040;13.680;2024-02-26T16:13:46;98726.97;;;19.69;49.45
25638;BME280;13496;51.040;13.680;2024-02-26T16:18:51;98716.63;;;19.68;49.28
25638;BME280;13496;51.040;13.680;2024-02-26T16:23:56;98725.69;;;19.72;49.12
25638;BME280;13496;51.040;13.680;2024-02-26T16:28:58;98734.03;;;19.69;49.54
25638;BME280;13496;51.040;13.680;2024-02-26T16:34:00;98751.44;;;19.70;49.23
25638;BME280;13496;51.040;13.680;2024-02-26T16:39:02;98752.44;;;19.69;49.13
25638;BME280;13496;51.040;13.680;2024-02-26T16:44:04;98759.78;;;19.67;49.19
25638;BME280;13496;51.040;13.680;2024-02-26T16:49:06;98778.41;;;19.65;49.18
25638;BME280;13496;51.040;13.680;2024-02-26T16:54:08;98782.84;;;19.65;49.39
25638;BME280;13496;51.040;13.680;2024-02-26T16:59:10;98795.81;;;19.66;49.49
25638;BME280;13496;51.040;13.680;2024-02-26T17:04:12;98787.91;;;19.66;49.34
25638;BME280;13496;51.040;13.680;2024-02-26T17:09:14;98808.38;;;19.64;49.54
25638;BME280;13496;51.040;13.680;2024-02-26T17:14:16;98814.88;;;19.62;49.21
25638;BME280;13496;51.040;13.680;2024-02-26T17:19:19;98821.34;;;19.59;49.16
25638;BME280;13496;51.040;13.680;2024-02-26T17:24:21;98820.31;;;19.60;49.35
25638;BME280;13496;51.040;13.680;2024-02-26T17:29:23;98831.88;;;19.59;49.30
25638;BME280;13496;51.040;13.680;2024-02-26T17:34:26;98836.13;;;19.60;49.10
25638;BME280;13496;51.040;13.680;2024-02-26T17:39:30;98846.88;;;19.58;49.30
25638;BME280;13496;51.040;13.680;2024-02-26T17:44:38;98855.56;;;19.59;49.26
25638;BME280;13496;51.040;13.680;2024-02-26T17:49:40;98853.97;;;19.58;49.14
25638;BME280;13496;51.040;13.680;2024-02-26T17:54:42;98856.22;;;19.54;49.27
25638;BME280;13496;51.040;13.680;2024-02-26T17:59:44;98854.97;;;19.57;49.61
25638;BME280;13496;51.040;13.680;2024-02-26T18:04:46;98851.75;;;19.55;49.59
25638;BME280;13496;51.040;13.680;2024-02-26T18:09:48;98863.50;;;19.52;49.23
25638;BME280;13496;51.040;13.680;2024-02-26T18:14:49;98858.47;;;19.51;49.22
25638;BME280;13496;51.040;13.680;2024-02-26T18:19:51;98856.66;;;19.51;49.58
25638;BME280;13496;51.040;13.680;2024-02-26T18:24:53;98863.50;;;19.52;49.55
25638;BME280;13496;51.040;13.680;2024-02-26T18:29:56;98857.88;;;19.49;49.68
25638;BME280;13496;51.040;13.680;2024-02-26T18:34:58;98867.38;;;19.50;49.72
25638;BME280;13496;51.040;13.680;2024-02-26T18:40:00;98873.66;;;19.49;49.62
25638;BME280;13496;51.040;13.680;2024-02-26T18:45:02;98871.03;;;19.49;49.52
25638;BME280;13496;51.040;13.680;2024-02-26T18:50:05;98875.06;;;19.51;49.50
25638;BME280;13496;51.040;13.680;2024-02-26T18:55:07;98874.69;;;19.48;49.28
25638;BME280;13496;51.040;13.680;2024-02-26T19:00:09;98888.66;;;19.48;49.33
25638;BME280;13496;51.040;13.680;2024-02-26T19:05:11;98887.84;;;19.48;49.47
25638;BME280;13496;51.040;13.680;2024-02-26T19:10:13;98895.94;;;19.46;49.19
25638;BME280;13496;51.040;13.680;2024-02-26T19:15:15;98900.63;;;19.44;49.16
25638;BME280;13496;51.040;13.680;2024-02-26T19:20:18;98893.53;;;19.45;49.55
25638;BME280;13496;51.040;13.680;2024-02-26T19:25:20;98898.56;;;19.46;49.48
25638;BME280;13496;51.040;13.680;2024-02-26T19:30:22;98900.41;;;19.46;49.27
25638;BME280;13496;51.040;13.680;2024-02-26T19:35:24;98899.16;;;19.48;49.62
25638;BME280;13496;51.040;13.680;2024-02-26T19:40:26;98909.09;;;19.46;49.29
25638;BME280;13496;51.040;13.680;2024-02-26T19:45:29;98910.91;;;19.46;49.55
25638;BME280;13496;51.040;13.680;2024-02-26T19:50:30;98917.81;;;19.47;49.36
25638;BME280;13496;51.040;13.680;2024-02-26T19:55:32;98922.25;;;19.46;49.21
25638;BME280;13496;51.040;13.680;2024-02-26T20:00:35;98925.69;;;19.47;49.56
25638;BME280;13496;51.040;13.680;2024-02-26T20:05:37;98929.94;;;19.48;49.70
25638;BME280;13496;51.040;13.680;2024-02-26T20:10:39;98944.13;;;19.47;49.72
25638;BME280;13496;51.040;13.680;2024-02-26T20:15:41;98963.53;;;19.46;49.50
25638;BME280;13496;51.040;13.680;2024-02-26T20:20:42;98969.81;;;19.45;49.76
25638;BME280;13496;51.040;13.680;2024-02-26T20:25:45;98971.66;;;19.44;49.54
25638;BME280;13496;51.040;13.680;2024-02-26T20:30:46;98988.25;;;19.45;49.62
25638;BME280;13496;51.040;13.680;2024-02-26T20:35:48;98985.00;;;19.43;49.73
25638;BME280;13496;51.040;13.680;2024-02-26T20:40:50;98990.06;;;19.44;49.41
25638;BME280;13496;51.040;13.680;2024-02-26T20:45:52;98995.91;;;19.46;49.80
25638;BME280;13496;51.040;13.680;2024-02-26T20:50:54;99006.66;;;19.45;49.83
25638;BME280;13496;51.040;13.680;2024-02-26T20:55:56;99006.66;;;19.45;49.47
25638;BME280;13496;51.040;13.680;2024-02-26T21:00:58;99007.69;;;19.44;49.58
25638;BME280;13496;51.040;13.680;2024-02-26T21:06:01;99018.19;;;19.44;49.66
25638;BME280;13496;51.040;13.680;2024-02-26T21:11:05;99022.66;;;19.43;49.68
25638;BME280;13496;51.040;13.680;2024-02-26T21:16:07;99036.00;;;19.42;49.62
25638;BME280;13496;51.040;13.680;2024-02-26T21:21:10;99041.28;;;19.42;49.68
25638;BME280;13496;51.040;13.680;2024-02-26T21:26:14;99046.13;;;19.38;49.82
25638;BME280;13496;51.040;13.680;2024-02-26T21:31:16;99041.28;;;19.42;49.72
25638;BME280;13496;51.040;13.680;2024-02-26T21:36:18;99040.47;;;19.41;49.54
25638;BME280;13496;51.040;13.680;2024-02-26T21:41:20;99042.47;;;19.39;49.53
25638;BME280;13496;51.040;13.680;2024-02-26T21:46:22;99036.88;;;19.36;49.86
25638;BME280;13496;51.040;13.680;2024-02-26T21:51:25;99052.66;;;19.36;49.76
25638;BME280;13496;51.040;13.680;2024-02-26T21:56:27;99062.56;;;19.33;49.86
25638;BME280;13496;51.040;13.680;2024-02-26T22:01:29;99080.97;;;19.33;49.92
25638;BME280;13496;51.040;13.680;2024-02-26T22:06:30;99078.56;;;19.32;49.86
25638;BME280;13496;51.040;13.680;2024-02-26T22:11:33;99082.56;;;19.34;49.55
25638;BME280;13496;51.040;13.680;2024-02-26T22:16:35;99090.88;;;19.31;49.80
25638;BME280;13496;51.040;13.680;2024-02-26T22:21:36;99095.16;;;19.32;49.92
25638;BME280;13496;51.040;13.680;2024-02-26T22:26:38;99095.56;;;19.29;49.64
25638;BME280;13496;51.040;13.680;2024-02-26T22:31:40;99092.72;;;19.31;49.94
25638;BME280;13496;51.040;13.680;2024-02-26T22:36:42;99105.88;;;19.31;49.48
25638;BME280;13496;51.040;13.680;2024-02-26T22:41:43;99105.28;;;19.29;49.80
25638;BME280;13496;51.040;13.680;2024-02-26T22:46:46;99098.19;;;19.29;49.52
25638;BME280;13496;51.040;13.680;2024-02-26T22:51:48;99091.31;;;19.28;49.96
25638;BME280;13496;51.040;13.680;2024-02-26T22:56:51;99097.59;;;19.27;49.90
25638;BME280;13496;51.040;13.680;2024-02-26T23:01:53;99112.56;;;19.27;49.57
25638;BME280;13496;51.040;13.680;2024-02-26T23:06:55;99103.66;;;19.28;49.76
25638;BME280;13496;51.040;13.680;2024-02-26T23:11:57;99114.59;;;19.25;49.57
25638;BME280;13496;51.040;13.680;2024-02-26T23:17:00;99114.59;;;19.25;49.50
25638;BME280;13496;51.040;13.680;2024-02-26T23:22:02;99122.69;;;19.23;49.69
25638;BME280;13496;51.040;13.680;2024-02-26T23:27:04;99127.94;;;19.23;49.57
25638;BME280;13496;51.040;13.680;2024-02-26T23:32:06;99116.84;;;19.21;49.94
25638;BME280;13496;51.040;13.680;2024-02-26T23:37:07;99118.66;;;19.21;49.60
25638;BME280;13496;51.040;13.680;2024-02-26T23:42:09;99125.72;;;19.20;49.42
25638;BME280;13496;51.040;13.680;2024-02-26T23:47:11;99142.13;;;19.22;49.80
25638;BME280;13496;51.040;13.680;2024-02-26T23:52:13;99133.63;;;19.20;49.95
25638;BME280;13496;51.040;13.680;2024-02-26T23:57:15;99130.97;;;19.20;49.48
